Time;durP1;ratioP1;P1;durP2;ratioP2;P2;SDS_P1;SDS_P2;PMS_P1;PMS_P2;Temp;Humidity;BMP_temperature;BMP_pressure;BME280_temperature;BME280_humidity;BME280_pressure;Samples;Min_cycle;Max_cycle;Signal;HPM_P1;HPM_P2
2023/07/05 00:00:46;;;;;;;16.93;9.60;;;18.10;55.60;;;;;;5011880;28;20463;-73
2023/07/05 00:03:12;;;;;;;22.57;10.10;;;18.00;57.20;;;;;;4994055;28;20403;-73
2023/07/05 00:05:38;;;;;;;20.25;9.93;;;18.00;58.00;;;;;;5012088;28;20401;-72
2023/07/05 00:08:04;;;;;;;16.67;9.32;;;18.00;59.10;;;;;;5011461;28;20491;-73
2023/07/05 00:10:30;;;;;;;17.97;9.00;;;18.00;59.70;;;;;;5012498;28;20755;-73
2023/07/05 00:12:56;;;;;;;15.47;9.60;;;18.00;59.80;;;;;;4996943;28;20393;-74
2023/07/05 00:15:21;;;;;;;14.43;9.20;;;17.90;60.40;;;;;;4997054;28;20381;-74
2023/07/05 00:17:47;;;;;;;15.02;9.35;;;17.90;62.10;;;;;;5016482;28;20397;-72
2023/07/05 00:20:12;;;;;;;18.03;9.30;;;17.90;65.00;;;;;;5018354;28;20443;-74
2023/07/05 00:22:38;;;;;;;17.93;8.90;;;17.80;67.10;;;;;;5018145;28;20388;-74
2023/07/05 00:25:04;;;;;;;17.52;9.30;;;17.80;67.30;;;;;;5018355;28;20469;-74
2023/07/05 00:27:30;;;;;;;17.10;10.23;;;17.80;69.50;;;;;;5018400;28;20393;-74
2023/07/05 00:29:56;;;;;;;19.30;9.93;;;17.70;69.70;;;;;;5018369;28;20396;-72
2023/07/05 00:32:22;;;;;;;19.07;9.27;;;17.70;70.80;;;;;;5017964;28;20408;-73
2023/07/05 00:34:47;;;;;;;19.13;10.93;;;17.60;72.10;;;;;;5000452;28;20385;-72
2023/07/05 00:37:14;;;;;;;17.63;9.53;;;17.60;73.40;;;;;;5018208;28;20396;-72
2023/07/05 00:39:39;;;;;;;15.27;9.88;;;17.70;72.90;;;;;;5018235;28;20873;-72
2023/07/05 00:42:06;;;;;;;16.27;9.93;;;17.70;72.20;;;;;;5017514;28;20477;-73
2023/07/05 00:44:32;;;;;;;17.42;9.50;;;17.70;73.40;;;;;;5017712;28;20396;-72
2023/07/05 00:47:26;;;;;;;14.15;9.30;;;17.60;74.30;;;;;;5017274;28;20471;-72
2023/07/05 00:49:59;;;;;;;17.35;9.88;;;17.70;73.70;;;;;;5017546;28;20400;-73
2023/07/05 00:52:25;;;;;;;15.63;8.93;;;17.60;74.10;;;;;;5017600;28;20613;-71
2023/07/05 00:54:56;;;;;;;14.55;9.07;;;17.60;75.30;;;;;;5017708;28;20729;-73
2023/07/05 00:57:32;;;;;;;12.35;8.77;;;17.60;76.00;;;;;;5016783;28;20387;-74
2023/07/05 01:00:04;;;;;;;14.20;9.20;;;17.60;76.50;;;;;;5016791;28;20454;-73
2023/07/05 01:02:31;;;;;;;14.55;8.52;;;17.60;77.00;;;;;;5016669;28;20468;-72
2023/07/05 01:04:58;;;;;;;13.45;8.45;;;17.50;77.90;;;;;;4999126;28;20392;-73
2023/07/05 01:07:23;;;;;;;13.70;8.02;;;17.50;77.90;;;;;;5016560;28;20389;-73
2023/07/05 01:09:49;;;;;;;10.40;8.30;;;17.50;78.00;;;;;;5016684;28;20399;-72
2023/07/05 01:12:44;;;;;;;19.17;8.80;;;17.50;78.10;;;;;;5016386;28;20912;-72
2023/07/05 01:15:22;;;;;;;15.00;8.60;;;17.50;79.10;;;;;;5016758;28;20380;-71
2023/07/05 01:18:06;;;;;;;14.73;8.10;;;17.50;79.70;;;;;;5016548;28;20431;-71
2023/07/05 01:20:43;;;;;;;13.90;7.70;;;17.40;80.90;;;;;;5016769;28;20384;-72
2023/07/05 01:23:30;;;;;;;12.93;8.70;;;17.40;82.70;;;;;;5016533;28;20923;-72
2023/07/05 01:26:26;;;;;;;13.30;7.50;;;17.40;82.60;;;;;;5016868;28;20389;-72
2023/07/05 01:28:55;;;;;;;11.50;7.50;;;17.50;82.30;;;;;;5015229;28;20444;-74
2023/07/05 01:31:40;;;;;;;10.90;7.72;;;17.50;81.70;;;;;;5012939;28;20404;-73
2023/07/05 01:34:14;;;;;;;12.90;7.90;;;17.50;82.50;;;;;;5013604;28;20392;-72
2023/07/05 01:36:41;;;;;;;11.35;7.18;;;17.50;82.80;;;;;;5013391;28;20884;-72
2023/07/05 01:39:06;;;;;;;12.20;7.70;;;17.50;82.70;;;;;;5013505;28;20392;-74
2023/07/05 01:41:32;;;;;;;12.13;7.23;;;17.60;82.30;;;;;;5013388;28;20388;-74
2023/07/05 01:43:58;;;;;;;11.63;7.20;;;17.50;82.80;;;;;;5013427;28;20393;-73
2023/07/05 01:46:31;;;;;;;10.80;7.60;;;17.50;82.80;;;;;;5013405;28;20385;-73
2023/07/05 01:49:11;;;;;;;11.73;6.50;;;17.60;81.80;;;;;;5013534;28;20486;-73
2023/07/05 01:51:53;;;;;;;10.35;6.50;;;17.60;81.00;;;;;;5013944;28;20411;-73
2023/07/05 01:54:30;;;;;;;10.88;6.65;;;17.60;80.70;;;;;;5014985;28;20400;-72
2023/07/05 01:57:16;;;;;;;7.88;5.93;;;17.50;82.20;;;;;;5022745;28;20400;-73
2023/07/05 01:59:55;;;;;;;10.55;6.70;;;17.50;83.00;;;;;;5005552;28;20393;-71
2023/07/05 02:02:30;;;;;;;9.52;6.40;;;17.40;83.80;;;;;;5016607;28;20862;-72
2023/07/05 02:04:58;;;;;;;9.13;6.20;;;17.40;84.70;;;;;;5013052;28;20396;-71
2023/07/05 02:07:33;;;;;;;9.82;6.40;;;17.50;84.60;;;;;;5012589;28;20400;-71
2023/07/05 02:09:59;;;;;;;10.35;6.10;;;17.50;84.30;;;;;;5012820;28;20411;-71
2023/07/05 02:12:26;;;;;;;8.38;5.75;;;17.60;84.60;;;;;;4994729;28;20415;-71
2023/07/05 02:14:51;;;;;;;10.50;6.10;;;17.60;84.00;;;;;;5012594;28;20444;-71
2023/07/05 02:17:19;;;;;;;7.70;5.57;;;17.60;83.90;;;;;;5012583;28;20385;-72
2023/07/05 02:19:45;;;;;;;7.22;5.75;;;17.70;83.90;;;;;;5012554;28;20436;-71
2023/07/05 02:22:10;;;;;;;10.85;5.90;;;17.70;84.10;;;;;;5012236;28;20881;-71
2023/07/05 02:24:36;;;;;;;7.60;5.75;;;17.70;84.90;;;;;;5012417;28;20385;-73
2023/07/05 02:27:02;;;;;;;10.85;5.70;;;17.70;85.30;;;;;;5012147;28;20463;-73
2023/07/05 02:29:30;;;;;;;11.17;5.87;;;17.70;85.30;;;;;;5012283;28;20384;-72
2023/07/05 02:31:56;;;;;;;9.30;6.40;;;17.80;84.70;;;;;;5012087;28;20832;-72
2023/07/05 02:34:24;;;;;;;11.32;7.10;;;17.80;84.80;;;;;;5011543;28;20825;-72
2023/07/05 02:36:49;;;;;;;12.45;7.22;;;17.80;84.50;;;;;;5012088;28;20483;-74
2023/07/05 02:39:15;;;;;;;15.10;6.63;;;17.70;85.20;;;;;;5012066;28;20392;-73
2023/07/05 02:41:40;;;;;;;6.90;5.70;;;17.80;84.90;;;;;;4993942;28;20384;-72
2023/07/05 02:44:06;;;;;;;12.63;6.18;;;17.80;84.90;;;;;;5012045;28;20806;-72
2023/07/05 02:46:32;;;;;;;12.82;6.47;;;17.80;86.00;;;;;;5011927;28;20381;-73
2023/07/05 02:48:57;;;;;;;7.37;5.83;;;17.70;86.70;;;;;;4994671;28;20396;-72
2023/07/05 02:51:29;;;;;;;6.97;6.00;;;17.70;86.80;;;;;;5011430;28;20411;-71
2023/07/05 02:53:55;;;;;;;7.65;5.60;;;17.70;87.30;;;;;;5011771;28;20377;-72
2023/07/05 02:56:21;;;;;;;6.63;5.27;;;17.70;86.30;;;;;;5011843;28;20385;-73
2023/07/05 02:58:46;;;;;;;9.20;5.23;;;17.70;86.00;;;;;;5012463;28;20454;-73
2023/07/05 03:01:12;;;;;;;8.60;4.90;;;17.80;85.20;;;;;;5011609;28;20389;-74
2023/07/05 03:03:38;;;;;;;9.05;5.00;;;17.80;84.70;;;;;;4993896;28;20480;-74
2023/07/05 03:06:04;;;;;;;9.48;4.57;;;17.80;83.70;;;;;;5012293;28;20476;-73
2023/07/05 03:08:30;;;;;;;8.50;4.90;;;17.80;84.80;;;;;;5012079;28;20401;-73
2023/07/05 03:10:59;;;;;;;8.13;4.97;;;17.80;84.40;;;;;;5012236;28;20546;-72
2023/07/05 03:13:31;;;;;;;6.07;3.83;;;17.80;83.30;;;;;;5011978;28;20377;-72
2023/07/05 03:15:57;;;;;;;5.07;3.50;;;17.90;80.90;;;;;;5011883;28;20427;-73
2023/07/05 03:18:23;;;;;;;5.80;3.33;;;17.90;74.00;;;;;;5011374;28;20385;-73
2023/07/05 03:20:49;;;;;;;2.53;2.33;;;17.80;70.80;;;;;;4993936;28;20399;-74
2023/07/05 03:23:15;;;;;;;3.00;2.40;;;17.90;58.90;;;;;;5011428;28;20385;-73
2023/07/05 03:25:41;;;;;;;4.20;2.50;;;17.90;53.80;;;;;;5011789;28;20395;-72
2023/07/05 03:28:07;;;;;;;3.80;2.20;;;17.80;49.10;;;;;;5012368;28;20869;-73
2023/07/05 03:30:35;;;;;;;2.30;2.03;;;17.60;43.80;;;;;;5012130;28;20385;-74
2023/07/05 03:33:01;;;;;;;3.10;2.00;;;17.40;46.00;;;;;;5012168;28;20823;-74
2023/07/05 03:35:26;;;;;;;3.57;2.30;;;17.20;45.90;;;;;;4994911;28;20420;-75
2023/07/05 03:37:52;;;;;;;2.20;2.00;;;17.00;46.20;;;;;;5012140;28;20827;-73
2023/07/05 03:40:17;;;;;;;3.70;2.30;;;16.90;47.30;;;;;;5012223;28;20393;-75
2023/07/05 03:42:43;;;;;;;2.60;2.22;;;16.80;47.80;;;;;;5012652;28;20391;-74
2023/07/05 03:45:09;;;;;;;5.03;2.38;;;16.80;47.40;;;;;;5012405;28;20406;-74
2023/07/05 03:47:34;;;;;;;4.43;2.60;;;16.70;42.90;;;;;;5011656;28;20393;-75
2023/07/05 03:50:00;;;;;;;5.30;2.43;;;16.50;42.40;;;;;;4994311;28;20385;-75
2023/07/05 03:52:25;;;;;;;8.07;2.60;;;16.40;41.70;;;;;;5010114;28;20408;-73
2023/07/05 03:54:51;;;;;;;4.35;2.67;;;16.30;41.30;;;;;;5011474;28;20381;-73
2023/07/05 03:57:16;;;;;;;6.03;2.63;;;16.30;42.00;;;;;;5011066;28;20896;-75
2023/07/05 03:59:42;;;;;;;5.00;3.00;;;16.20;42.20;;;;;;5011236;28;20458;-73
2023/07/05 04:02:08;;;;;;;5.43;2.80;;;16.10;43.10;;;;;;5011077;28;20395;-75
2023/07/05 04:04:33;;;;;;;4.90;2.90;;;16.00;44.50;;;;;;5012823;28;20393;-75
2023/07/05 04:06:59;;;;;;;5.83;3.00;;;15.90;45.10;;;;;;4995677;28;20399;-75
2023/07/05 04:09:25;;;;;;;6.45;3.08;;;15.90;45.90;;;;;;4994536;28;20543;-75
2023/07/05 04:11:51;;;;;;;4.05;3.00;;;15.80;43.20;;;;;;5012926;28;20416;-73
2023/07/05 04:14:17;;;;;;;7.32;3.08;;;15.80;43.00;;;;;;5011802;28;20387;-76
2023/07/05 04:16:42;;;;;;;5.10;3.60;;;15.70;43.80;;;;;;5011609;28;20456;-75
2023/07/05 04:19:08;;;;;;;5.47;2.73;;;15.60;43.30;;;;;;5011518;28;20384;-74
2023/07/05 04:21:34;;;;;;;5.03;3.20;;;15.60;44.20;;;;;;4993896;28;20463;-73
2023/07/05 04:24:00;;;;;;;8.50;3.40;;;15.50;44.60;;;;;;5011403;28;20488;-74
2023/07/05 04:26:27;;;;;;;6.60;3.13;;;15.40;46.60;;;;;;5011607;28;20468;-75
2023/07/05 04:28:53;;;;;;;7.70;3.60;;;15.40;45.80;;;;;;5014018;28;20402;-74
2023/07/05 04:31:29;;;;;;;10.20;4.03;;;15.40;44.10;;;;;;5016816;28;20408;-74
2023/07/05 04:33:57;;;;;;;6.45;3.97;;;15.40;43.00;;;;;;5017367;28;20415;-75
2023/07/05 04:36:25;;;;;;;8.05;4.20;;;15.40;42.70;;;;;;5012245;28;20769;-76
2023/07/05 04:38:50;;;;;;;5.85;3.90;;;15.40;42.20;;;;;;5011756;28;20408;-74
2023/07/05 04:41:16;;;;;;;6.40;4.00;;;15.50;42.40;;;;;;5010936;28;20385;-74
2023/07/05 04:43:42;;;;;;;8.10;3.67;;;15.60;41.70;;;;;;4993281;28;20451;-74
2023/07/05 04:46:07;;;;;;;6.47;3.80;;;15.80;40.60;;;;;;5011574;28;20711;-73
2023/07/05 04:48:33;;;;;;;8.70;4.38;;;15.90;38.90;;;;;;4993767;28;20403;-74
2023/07/05 04:50:59;;;;;;;8.35;3.72;;;16.10;38.10;;;;;;5012927;28;20424;-74
2023/07/05 04:53:29;;;;;;;6.97;4.30;;;16.40;37.10;;;;;;4994514;28;20388;-73
2023/07/05 04:55:57;;;;;;;7.32;4.20;;;16.50;36.90;;;;;;5011739;28;20738;-73
2023/07/05 04:58:23;;;;;;;8.23;4.45;;;16.50;36.20;;;;;;5010555;28;20384;-74
2023/07/05 05:00:50;;;;;;;8.90;4.20;;;16.30;36.40;;;;;;5010824;28;20385;-74
2023/07/05 05:03:17;;;;;;;8.35;4.18;;;16.10;37.00;;;;;;5010626;28;20810;-73
2023/07/05 05:05:44;;;;;;;8.43;4.10;;;16.10;37.30;;;;;;5014674;28;20899;-74
2023/07/05 05:08:10;;;;;;;7.55;4.13;;;16.10;38.00;;;;;;5015183;28;20404;-74
2023/07/05 05:10:37;;;;;;;7.80;4.23;;;16.20;37.70;;;;;;5014930;28;20384;-75
2023/07/05 05:13:03;;;;;;;9.18;4.80;;;16.30;36.70;;;;;;4997234;28;20404;-74
2023/07/05 05:15:39;;;;;;;10.60;4.55;;;16.40;36.80;;;;;;5014532;28;20866;-74
2023/07/05 05:18:07;;;;;;;8.35;4.20;;;16.60;35.60;;;;;;5015197;28;20543;-74
2023/07/05 05:20:33;;;;;;;9.73;3.90;;;16.70;35.70;;;;;;5014620;28;20385;-73
2023/07/05 05:22:59;;;;;;;7.30;4.50;;;16.70;34.40;;;;;;5014082;28;20399;-75
2023/07/05 05:25:26;;;;;;;5.75;4.05;;;16.70;35.00;;;;;;5014315;28;20389;-74
2023/07/05 05:27:51;;;;;;;7.78;3.90;;;16.80;34.90;;;;;;5013789;28;20423;-74
2023/07/05 05:30:17;;;;;;;7.05;4.25;;;16.80;34.50;;;;;;4997292;28;20782;-75
2023/07/05 05:32:44;;;;;;;7.90;4.60;;;16.80;34.30;;;;;;4996131;28;20988;-74
2023/07/05 05:35:10;;;;;;;6.75;3.88;;;16.80;34.60;;;;;;5013483;28;20866;-73
2023/07/05 05:37:36;;;;;;;6.43;3.70;;;16.90;34.00;;;;;;5013977;28;20404;-74
2023/07/05 05:40:01;;;;;;;8.90;4.10;;;17.00;33.40;;;;;;5013912;28;20719;-75
2023/07/05 05:42:27;;;;;;;8.05;4.00;;;16.90;34.20;;;;;;5013846;28;20393;-76
2023/07/05 05:44:52;;;;;;;7.25;3.75;;;16.90;33.90;;;;;;5014691;28;20483;-76
2023/07/05 05:47:18;;;;;;;7.40;4.00;;;16.90;34.50;;;;;;5014506;28;20388;-73
2023/07/05 05:49:43;;;;;;;10.77;4.50;;;16.80;33.80;;;;;;5014544;28;20460;-74
2023/07/05 05:52:09;;;;;;;7.50;4.22;;;16.90;34.90;;;;;;5014257;28;20502;-75
2023/07/05 05:54:35;;;;;;;6.30;3.60;;;17.10;31.30;;;;;;5013999;28;20393;-74
2023/07/05 05:57:01;;;;;;;7.20;3.80;;;17.20;31.10;;;;;;4997093;28;20492;-74
2023/07/05 05:59:27;;;;;;;7.93;4.38;;;17.20;30.80;;;;;;5013941;28;20985;-73
2023/07/05 06:01:52;;;;;;;6.80;3.70;;;17.10;31.20;;;;;;5014011;28;20424;-74
2023/07/05 06:04:18;;;;;;;6.60;4.40;;;17.00;30.20;;;;;;5013892;28;20421;-74
2023/07/05 06:06:43;;;;;;;8.40;4.37;;;16.90;31.00;;;;;;4995855;28;20401;-74
2023/07/05 06:09:10;;;;;;;9.70;4.43;;;16.90;30.70;;;;;;5013544;28;20388;-74
2023/07/05 06:11:35;;;;;;;7.60;4.50;;;16.70;31.20;;;;;;5014130;28;20433;-75
2023/07/05 06:14:01;;;;;;;7.40;4.20;;;16.70;32.00;;;;;;5014378;28;20427;-75
2023/07/05 06:16:27;;;;;;;7.40;4.10;;;16.60;32.30;;;;;;5013879;28;20389;-74
2023/07/05 06:18:53;;;;;;;7.57;3.90;;;16.50;32.10;;;;;;5014908;28;20388;-74
2023/07/05 06:21:19;;;;;;;8.40;4.00;;;16.50;33.00;;;;;;5015927;28;20428;-74
2023/07/05 06:23:45;;;;;;;9.07;4.40;;;16.70;32.30;;;;;;5015646;28;20388;-74
2023/07/05 06:26:10;;;;;;;7.55;4.45;;;16.80;31.80;;;;;;5014648;28;20879;-75
2023/07/05 06:28:36;;;;;;;4.17;3.40;;;16.80;31.40;;;;;;4996836;28;20404;-73
2023/07/05 06:31:06;;;;;;;9.37;3.70;;;16.80;29.60;;;;;;5013855;28;20886;-73
2023/07/05 06:33:32;;;;;;;8.35;3.65;;;16.70;29.50;;;;;;5014393;28;20416;-75
2023/07/05 06:36:00;;;;;;;8.88;3.80;;;16.70;29.80;;;;;;5014394;28;20411;-73
2023/07/05 06:38:27;;;;;;;12.27;3.75;;;16.70;29.60;;;;;;5013563;28;20407;-74
2023/07/05 06:40:53;;;;;;;10.32;3.88;;;16.80;29.80;;;;;;5014066;28;20716;-75
2023/07/05 06:43:20;;;;;;;5.50;3.63;;;16.90;29.80;;;;;;5013508;28;20800;-75
2023/07/05 06:45:51;;;;;;;10.15;4.00;;;17.10;29.00;;;;;;5012458;28;20815;-74
2023/07/05 06:48:16;;;;;;;7.30;3.40;;;17.40;28.40;;;;;;5013222;28;20427;-74
2023/07/05 06:50:42;;;;;;;8.93;3.40;;;17.60;27.00;;;;;;5012748;28;20428;-74
2023/07/05 06:53:10;;;;;;;7.47;3.50;;;17.60;25.80;;;;;;5012637;28;20798;-74
2023/07/05 06:55:39;;;;;;;17.70;3.67;;;17.70;26.60;;;;;;4994824;28;20492;-74
2023/07/05 06:58:04;;;;;;;12.27;3.60;;;17.60;26.70;;;;;;5014310;28;20384;-75
2023/07/05 07:00:30;;;;;;;6.07;3.20;;;17.50;26.80;;;;;;5012430;28;20497;-74
2023/07/05 07:02:56;;;;;;;2.92;2.55;;;17.30;27.10;;;;;;4994680;28;20527;-75
2023/07/05 07:05:21;;;;;;;5.33;2.90;;;17.20;27.50;;;;;;5013029;28;20459;-75
2023/07/05 07:07:47;;;;;;;7.27;3.10;;;17.20;27.50;;;;;;5012109;28;20458;-74
2023/07/05 07:10:12;;;;;;;6.03;2.90;;;17.20;27.50;;;;;;5012667;28;20381;-75
2023/07/05 07:12:38;;;;;;;8.90;3.40;;;17.30;27.00;;;;;;5012857;28;20413;-75
2023/07/05 07:15:04;;;;;;;6.00;2.90;;;17.40;26.60;;;;;;5014171;28;20385;-75
2023/07/05 07:17:29;;;;;;;6.38;2.50;;;17.50;26.20;;;;;;5026873;28;20395;-74
2023/07/05 07:19:55;;;;;;;14.60;3.40;;;17.50;26.40;;;;;;5019818;28;20453;-75
2023/07/05 07:22:20;;;;;;;7.65;2.90;;;17.50;27.00;;;;;;5031995;28;20394;-74
2023/07/05 07:24:46;;;;;;;7.30;2.80;;;17.20;27.00;;;;;;5014559;28;20434;-76
2023/07/05 07:27:12;;;;;;;5.30;2.70;;;17.00;27.40;;;;;;5031574;28;20793;-74
2023/07/05 07:29:38;;;;;;;8.80;3.13;;;17.00;27.60;;;;;;5016756;28;20919;-76
2023/07/05 07:32:06;;;;;;;7.53;3.15;;;16.90;28.20;;;;;;5013960;28;20404;-77
2023/07/05 07:34:32;;;;;;;7.22;2.80;;;17.00;29.50;;;;;;4999821;28;21196;-77
2023/07/05 07:36:57;;;;;;;8.47;2.90;;;17.00;28.50;;;;;;5022283;28;20416;-76
2023/07/05 07:39:23;;;;;;;11.07;2.90;;;17.00;29.20;;;;;;5015167;28;20389;-77
2023/07/05 07:41:49;;;;;;;7.73;2.70;;;17.00;29.10;;;;;;5019990;28;20399;-78
2023/07/05 07:44:18;;;;;;;9.93;2.90;;;16.90;30.00;;;;;;5012765;28;20405;-78
2023/07/05 07:46:43;;;;;;;7.63;2.65;;;16.70;31.30;;;;;;5013266;28;20404;-75
2023/07/05 07:49:10;;;;;;;4.80;3.00;;;16.70;31.70;;;;;;5005139;28;20411;-76
2023/07/05 07:51:38;;;;;;;5.80;3.10;;;16.60;32.70;;;;;;5005045;28;20422;-76
2023/07/05 07:54:05;;;;;;;11.50;2.70;;;16.40;34.20;;;;;;5012549;28;20485;-77
2023/07/05 07:56:30;;;;;;;7.15;2.75;;;16.40;34.10;;;;;;5014445;28;20769;-77
2023/07/05 07:58:58;;;;;;;9.00;3.00;;;16.30;34.50;;;;;;5012453;28;20470;-77
2023/07/05 08:01:26;;;;;;;7.07;2.90;;;16.40;32.90;;;;;;5010560;28;20401;-76
2023/07/05 08:03:53;;;;;;;6.70;2.70;;;16.80;31.20;;;;;;5021044;28;20404;-76
2023/07/05 08:06:20;;;;;;;6.07;2.37;;;17.20;29.10;;;;;;4994724;28;20413;-77
2023/07/05 08:08:45;;;;;;;10.60;2.47;;;17.60;26.90;;;;;;5013013;28;20944;-76
2023/07/05 08:11:12;;;;;;;10.43;2.83;;;17.80;27.30;;;;;;5030344;28;20855;-77
2023/07/05 08:13:40;;;;;;;11.23;2.15;;;17.80;26.80;;;;;;5025196;28;20396;-77
2023/07/05 08:16:06;;;;;;;10.90;2.30;;;17.70;26.20;;;;;;5012563;28;20384;-76
2023/07/05 08:18:32;;;;;;;8.77;2.23;;;17.60;26.60;;;;;;5026250;28;20391;-75
2023/07/05 08:20:59;;;;;;;6.77;2.30;;;17.50;26.00;;;;;;5006340;28;20430;-77
2023/07/05 08:23:24;;;;;;;5.00;1.90;;;17.50;26.10;;;;;;5014042;28;20423;-77
2023/07/05 08:25:54;;;;;;;9.27;2.40;;;17.80;26.10;;;;;;5022353;28;20485;-75
2023/07/05 08:28:27;;;;;;;8.20;2.53;;;18.30;23.90;;;;;;5019091;28;20406;-71
2023/07/05 08:31:01;;;;;;;8.00;3.17;;;18.50;22.90;;;;;;5015530;28;20418;-77
2023/07/05 08:33:28;;;;;;;6.00;2.33;;;18.40;23.50;;;;;;5023446;28;20419;-76
2023/07/05 08:36:27;;;;;;;9.65;2.33;;;18.30;23.40;;;;;;5013592;28;20385;-77
2023/07/05 08:38:54;;;;;;;12.50;2.80;;;18.30;23.80;;;;;;5017309;28;20415;-75
2023/07/05 08:41:41;;;;;;;9.10;2.80;;;18.50;23.50;;;;;;5037611;28;20405;-78
2023/07/05 08:45:14;;;;;;;5.60;2.33;;;18.70;22.20;;;;;;5041142;28;20462;-75
2023/07/05 08:47:48;;;;;;;6.53;2.30;;;18.90;21.10;;;;;;4938926;29;20420;-76
2023/07/05 08:50:34;;;;;;;5.63;2.30;;;18.90;22.30;;;;;;4926128;29;20448;-75
2023/07/05 08:53:21;;;;;;;9.05;2.53;;;18.90;21.90;;;;;;4994571;28;20404;-74
2023/07/05 08:55:55;;;;;;;6.10;2.30;;;18.90;20.80;;;;;;5018257;28;20471;-75
2023/07/05 08:58:24;;;;;;;5.63;2.10;;;18.90;21.00;;;;;;5000478;28;20410;-77
2023/07/05 09:00:57;;;;;;;10.07;2.40;;;18.70;21.10;;;;;;5017149;28;20741;-75
2023/07/05 09:03:28;;;;;;;7.55;2.25;;;18.50;21.50;;;;;;5016714;28;20407;-76
2023/07/05 09:06:12;;;;;;;7.55;2.20;;;18.40;22.10;;;;;;5016611;28;20527;-76
2023/07/05 09:09:08;;;;;;;8.93;2.40;;;18.40;22.20;;;;;;5016155;28;20403;-76
2023/07/05 09:12:06;;;;;;;12.95;2.60;;;18.40;22.70;;;;;;4997608;28;20876;-76
2023/07/05 09:14:53;;;;;;;12.60;2.67;;;18.50;22.20;;;;;;5014691;28;20479;-76
2023/07/05 09:17:27;;;;;;;8.88;2.15;;;18.50;22.10;;;;;;5017487;28;20739;-76
2023/07/05 09:20:16;;;;;;;8.85;2.40;;;18.70;21.20;;;;;;5017537;28;20389;-75
2023/07/05 09:22:43;;;;;;;19.23;2.50;;;18.90;20.90;;;;;;4997813;28;20470;-75
2023/07/05 09:25:14;;;;;;;6.10;2.00;;;19.10;20.00;;;;;;5015896;28;20388;-76
2023/07/05 09:27:46;;;;;;;8.20;2.28;;;19.50;19.60;;;;;;5015662;28;20619;-76
2023/07/05 09:30:25;;;;;;;9.38;2.15;;;19.90;18.50;;;;;;5015148;28;20397;-75
2023/07/05 09:33:03;;;;;;;18.85;2.25;;;19.90;17.70;;;;;;5015636;28;20448;-74
2023/07/05 09:35:32;;;;;;;11.27;2.10;;;20.00;17.90;;;;;;5015458;28;20816;-75
2023/07/05 09:38:08;;;;;;;7.85;2.50;;;20.30;17.90;;;;;;5015917;28;20385;-75
2023/07/05 09:41:01;;;;;;;8.77;2.00;;;20.60;17.40;;;;;;5014260;28;20428;-74
2023/07/05 09:43:32;;;;;;;7.55;2.80;;;20.70;16.70;;;;;;5014730;28;20389;-74
2023/07/05 09:46:01;;;;;;;7.23;2.10;;;20.50;16.90;;;;;;5015803;28;20733;-76
2023/07/05 09:48:29;;;;;;;9.50;2.60;;;20.40;17.20;;;;;;5016696;28;20381;-75
2023/07/05 09:50:54;;;;;;;6.70;2.20;;;20.30;17.00;;;;;;5016397;28;20416;-75
2023/07/05 09:53:20;;;;;;;6.43;2.72;;;20.20;16.60;;;;;;5016533;28;20381;-76
2023/07/05 09:56:09;;;;;;;13.70;2.90;;;20.00;16.60;;;;;;4996631;28;20381;-74
2023/07/05 09:58:35;;;;;;;6.97;2.20;;;20.00;16.80;;;;;;4995471;28;20393;-76
2023/07/05 10:01:04;;;;;;;12.35;2.95;;;20.10;16.60;;;;;;5013060;28;20419;-75
2023/07/05 10:03:43;;;;;;;13.02;2.33;;;20.30;16.60;;;;;;4995524;28;20758;-76
2023/07/05 10:06:11;;;;;;;7.72;2.20;;;20.30;15.90;;;;;;4995739;28;20576;-76
2023/07/05 10:08:45;;;;;;;13.68;2.90;;;20.20;16.40;;;;;;4996323;28;20479;-75
2023/07/05 10:11:26;;;;;;;16.83;3.25;;;20.20;16.30;;;;;;5013906;28;20413;-75
2023/07/05 10:14:02;;;;;;;11.65;2.70;;;20.40;16.80;;;;;;5015611;28;20408;-75
2023/07/05 10:16:53;;;;;;;7.47;2.58;;;20.40;16.10;;;;;;5013984;28;20381;-75
2023/07/05 10:19:36;;;;;;;8.05;2.15;;;20.10;16.60;;;;;;5013168;28;20486;-74
2023/07/05 10:22:12;;;;;;;15.10;2.40;;;19.90;16.40;;;;;;4995107;28;20392;-74
2023/07/05 10:24:43;;;;;;;7.85;2.40;;;19.80;16.60;;;;;;5013249;28;20447;-74
2023/07/05 10:27:12;;;;;;;7.38;2.40;;;19.90;16.80;;;;;;5012795;28;20409;-74
2023/07/05 10:29:41;;;;;;;4.07;1.70;;;20.00;16.10;;;;;;5013237;28;20404;-75
2023/07/05 10:32:18;;;;;;;8.70;2.43;;;20.00;15.90;;;;;;5012768;28;20469;-74
2023/07/05 10:34:44;;;;;;;9.80;3.10;;;20.20;15.30;;;;;;5013349;28;20862;-74
2023/07/05 10:37:32;;;;;;;5.78;2.00;;;20.60;15.60;;;;;;5012739;28;20418;-75
2023/07/05 10:40:00;;;;;;;5.72;2.00;;;21.00;14.40;;;;;;5012953;28;20464;-75
2023/07/05 10:42:26;;;;;;;7.53;2.25;;;21.20;13.90;;;;;;5012248;28;20385;-74
2023/07/05 10:44:52;;;;;;;7.97;2.53;;;21.00;13.90;;;;;;5012966;28;20425;-76
2023/07/05 10:47:19;;;;;;;7.10;2.20;;;21.20;14.10;;;;;;5012657;28;20388;-74
2023/07/05 10:49:47;;;;;;;7.00;2.35;;;21.30;13.90;;;;;;4995621;28;20435;-75
2023/07/05 10:52:16;;;;;;;5.50;2.20;;;21.30;13.50;;;;;;4995606;28;20408;-76
2023/07/05 10:54:50;;;;;;;11.13;2.17;;;21.50;13.30;;;;;;5013162;28;20396;-75
2023/07/05 10:57:27;;;;;;;5.67;2.40;;;21.30;12.90;;;;;;5012890;28;20389;-76
2023/07/05 11:00:12;;;;;;;8.27;2.28;;;21.20;13.00;;;;;;4995571;28;20436;-74
2023/07/05 11:02:55;;;;;;;7.30;2.35;;;21.20;13.50;;;;;;5013236;28;20404;-74
2023/07/05 11:05:39;;;;;;;7.15;2.30;;;20.90;13.00;;;;;;4995713;28;20389;-75
2023/07/05 11:08:14;;;;;;;9.50;2.40;;;20.90;12.70;;;;;;5015531;28;20912;-75
2023/07/05 11:10:41;;;;;;;9.60;2.30;;;20.90;13.10;;;;;;4996246;28;20396;-75
2023/07/05 11:13:14;;;;;;;12.30;2.60;;;20.80;13.30;;;;;;5012847;28;20483;-75
2023/07/05 11:15:40;;;;;;;10.10;2.20;;;21.10;12.80;;;;;;5013153;28;20436;-74
2023/07/05 11:18:07;;;;;;;7.63;2.40;;;21.50;12.80;;;;;;5012677;28;20888;-75
2023/07/05 11:20:39;;;;;;;6.97;2.13;;;21.70;11.70;;;;;;5013417;28;20471;-76
2023/07/05 11:23:09;;;;;;;10.37;2.30;;;21.70;11.40;;;;;;5013801;28;20399;-75
2023/07/05 11:25:57;;;;;;;8.25;2.13;;;21.60;11.40;;;;;;5012858;28;20749;-76
2023/07/05 11:28:42;;;;;;;8.35;2.30;;;21.70;11.10;;;;;;5014474;28;20413;-75
2023/07/05 11:31:10;;;;;;;7.18;2.20;;;22.00;10.60;;;;;;5013350;28;20500;-74
2023/07/05 11:33:36;;;;;;;11.40;2.38;;;21.60;9.60;;;;;;4996142;28;20423;-73
2023/07/05 11:36:08;;;;;;;6.10;1.80;;;21.30;10.40;;;;;;5013496;28;20385;-74
2023/07/05 11:38:37;;;;;;;9.43;2.60;;;21.30;11.20;;;;;;5013140;28;20742;-74
2023/07/05 11:41:05;;;;;;;7.28;1.98;;;21.20;11.00;;;;;;5012855;28;20392;-77
2023/07/05 11:43:54;;;;;;;3.80;1.75;;;21.20;11.40;;;;;;5012900;28;20475;-74
2023/07/05 11:46:41;;;;;;;7.03;2.53;;;20.90;11.40;;;;;;5013097;28;20419;-74
2023/07/05 11:49:21;;;;;;;4.70;2.20;;;20.80;12.00;;;;;;4996038;28;20960;-74
2023/07/05 11:52:01;;;;;;;8.60;2.10;;;20.70;11.90;;;;;;5014646;28;20423;-75
2023/07/05 11:54:46;;;;;;;7.00;2.30;;;20.90;11.30;;;;;;5019484;28;20773;-76
2023/07/05 11:57:13;;;;;;;8.25;1.92;;;21.20;10.80;;;;;;5022669;28;20400;-74
2023/07/05 12:00:21;;;;;;;5.95;2.45;;;21.40;10.50;;;;;;5019872;28;20874;-75
2023/07/05 12:02:57;;;;;;;4.63;2.10;;;21.80;10.20;;;;;;4936500;29;20415;-76
2023/07/05 12:05:26;;;;;;;8.13;2.30;;;22.10;9.60;;;;;;4936599;29;20965;-75
2023/07/05 12:08:04;;;;;;;8.95;2.03;;;22.30;9.40;;;;;;4979605;28;20396;-75
2023/07/05 12:10:31;;;;;;;4.88;1.80;;;22.20;7.90;;;;;;5013782;28;20381;-74
2023/07/05 12:12:57;;;;;;;4.00;1.80;;;22.20;7.70;;;;;;5012456;28;20408;-74
2023/07/05 12:15:23;;;;;;;3.63;1.80;;;22.40;8.00;;;;;;5012683;28;20751;-75
2023/07/05 12:17:48;;;;;;;4.80;2.00;;;22.40;8.10;;;;;;5012315;28;20385;-73
2023/07/05 12:20:38;;;;;;;11.43;2.95;;;22.20;9.10;;;;;;5012614;28;20381;-76
2023/07/05 12:23:07;;;;;;;10.13;2.60;;;22.10;10.80;;;;;;5000646;28;20396;-75
2023/07/05 12:25:34;;;;;;;13.27;2.90;;;21.90;12.50;;;;;;5012080;28;20384;-75
2023/07/05 12:28:03;;;;;;;12.00;3.08;;;21.60;13.70;;;;;;4996929;28;20408;-76
2023/07/05 12:30:29;;;;;;;11.05;2.85;;;21.40;14.00;;;;;;4998590;28;20397;-76
2023/07/05 12:33:01;;;;;;;11.02;3.30;;;21.40;14.00;;;;;;5016241;28;20400;-76
2023/07/05 12:35:27;;;;;;;9.80;2.20;;;21.60;13.90;;;;;;5019443;28;20388;-76
2023/07/05 12:37:55;;;;;;;7.60;2.60;;;21.70;13.00;;;;;;5016604;28;20444;-75
2023/07/05 12:40:29;;;;;;;10.48;2.90;;;21.40;13.50;;;;;;5016894;28;20412;-76
2023/07/05 12:42:59;;;;;;;8.82;2.45;;;21.20;13.90;;;;;;5015668;28;20450;-75
2023/07/05 12:45:29;;;;;;;6.50;2.70;;;21.20;14.40;;;;;;5011300;28;20388;-75
2023/07/05 12:47:55;;;;;;;7.55;2.72;;;21.20;14.40;;;;;;5010951;28;20417;-76
2023/07/05 12:50:23;;;;;;;6.47;2.30;;;21.30;14.10;;;;;;5010937;28;20423;-75
2023/07/05 12:53:01;;;;;;;10.05;2.80;;;21.30;13.90;;;;;;4993118;28;20940;-74
2023/07/05 12:55:29;;;;;;;15.97;3.73;;;21.30;14.10;;;;;;5011027;28;20893;-75
2023/07/05 12:57:56;;;;;;;27.88;4.60;;;21.30;15.30;;;;;;4993516;28;20897;-75